sensor_id;sensor_type;location;lat;lon;timestamp;pressure;altitude;pressure_sealevel;temperature;humidity
9419;BME280;4748;50.802;7.132;2023-04-20T00:01:44;101380.16;;;8.18;80.98
9419;BME280;4748;50.802;7.132;2023-04-20T00:04:09;101374.75;;;8.12;82.97
9419;BME280;4748;50.802;7.132;2023-04-20T00:06:35;101364.81;;;8.06;83.55
9419;BME280;4748;50.802;7.132;2023-04-20T00:09:00;101373.81;;;8.05;85.83
9419;BME280;4748;50.802;7.132;2023-04-20T00:11:29;101364.34;;;8.03;87.04
9419;BME280;4748;50.802;7.132;2023-04-20T00:13:54;101364.44;;;8.09;82.82
9419;BME280;4748;50.802;7.132;2023-04-20T00:16:20;101357.06;;;8.11;84.43
9419;BME280;4748;50.802;7.132;2023-04-20T00:18:45;101351.59;;;8.13;85.56
9419;BME280;4748;50.802;7.132;2023-04-20T00:21:11;101346.06;;;8.14;85.95
9419;BME280;4748;50.802;7.132;2023-04-20T00:23:37;101336.50;;;8.19;86.51
9419;BME280;4748;50.802;7.132;2023-04-20T00:26:03;101330.72;;;8.16;87.30
9419;BME280;4748;50.802;7.132;2023-04-20T00:28:28;101324.25;;;8.25;86.37
9419;BME280;4748;50.802;7.132;2023-04-20T00:30:53;101323.16;;;8.19;87.83
9419;BME280;4748;50.802;7.132;2023-04-20T00:33:19;101314.97;;;8.21;87.78
9419;BME280;4748;50.802;7.132;2023-04-20T00:35:44;101313.16;;;8.21;88.51
9419;BME280;4748;50.802;7.132;2023-04-20T00:38:10;101313.50;;;8.18;90.78
9419;BME280;4748;50.802;7.132;2023-04-20T00:40:35;101299.63;;;8.23;88.88
9419;BME280;4748;50.802;7.132;2023-04-20T00:43:11;101301.06;;;8.25;90.98
9419;BME280;4748;50.802;7.132;2023-04-20T00:45:36;101299.50;;;8.31;87.00
9419;BME280;4748;50.802;7.132;2023-04-20T00:48:02;101297.19;;;8.28;88.88
9419;BME280;4748;50.802;7.132;2023-04-20T00:50:28;101297.59;;;8.25;88.33
9419;BME280;4748;50.802;7.132;2023-04-20T00:52:54;101286.34;;;8.29;87.22
9419;BME280;4748;50.802;7.132;2023-04-20T00:55:23;101288.81;;;8.31;89.02
9419;BME280;4748;50.802;7.132;2023-04-20T00:57:48;101290.91;;;8.35;88.88
9419;BME280;4748;50.802;7.132;2023-04-20T01:00:14;101284.38;;;8.38;87.98
9419;BME280;4748;50.802;7.132;2023-04-20T01:02:39;101279.31;;;8.43;86.62
9419;BME280;4748;50.802;7.132;2023-04-20T01:05:05;101273.59;;;8.46;88.21
9419;BME280;4748;50.802;7.132;2023-04-20T01:07:31;101267.50;;;8.52;85.61
9419;BME280;4748;50.802;7.132;2023-04-20T01:09:56;101271.81;;;8.53;85.04
9419;BME280;4748;50.802;7.132;2023-04-20T01:12:22;101278.34;;;8.50;85.73
9419;BME280;4748;50.802;7.132;2023-04-20T01:14:47;101269.38;;;8.58;84.76
9419;BME280;4748;50.802;7.132;2023-04-20T01:17:12;101269.00;;;8.61;85.23
9419;BME280;4748;50.802;7.132;2023-04-20T01:19:39;101265.50;;;8.60;86.05
9419;BME280;4748;50.802;7.132;2023-04-20T01:22:06;101269.19;;;8.59;84.85
9419;BME280;4748;50.802;7.132;2023-04-20T01:24:32;101269.00;;;8.61;86.96
9419;BME280;4748;50.802;7.132;2023-04-20T01:26:57;101265.31;;;8.62;85.55
9419;BME280;4748;50.802;7.132;2023-04-20T01:29:23;101262.47;;;8.63;87.48
9419;BME280;4748;50.802;7.132;2023-04-20T01:31:48;101251.59;;;8.64;86.37
9419;BME280;4748;50.802;7.132;2023-04-20T01:34:13;101249.34;;;8.68;87.60
9419;BME280;4748;50.802;7.132;2023-04-20T01:36:39;101246.47;;;8.69;87.90
9419;BME280;4748;50.802;7.132;2023-04-20T01:39:04;101248.34;;;8.69;87.33
9419;BME280;4748;50.802;7.132;2023-04-20T01:41:30;101246.28;;;8.71;88.68
9419;BME280;4748;50.802;7.132;2023-04-20T01:43:55;101239.75;;;8.73;86.71
9419;BME280;4748;50.802;7.132;2023-04-20T01:46:20;101235.44;;;8.72;86.14
9419;BME280;4748;50.802;7.132;2023-04-20T01:48:46;101237.06;;;8.73;84.03
9419;BME280;4748;50.802;7.132;2023-04-20T01:51:11;101240.00;;;8.78;84.15
9419;BME280;4748;50.802;7.132;2023-04-20T01:53:36;101234.88;;;8.77;83.51
9419;BME280;4748;50.802;7.132;2023-04-20T01:56:02;101224.59;;;8.80;85.79
9419;BME280;4748;50.802;7.132;2023-04-20T01:58:27;101233.88;;;8.84;86.46
9419;BME280;4748;50.802;7.132;2023-04-20T02:00:53;101232.63;;;8.80;86.54
9419;BME280;4748;50.802;7.132;2023-04-20T02:03:18;101238.16;;;8.79;87.17
9419;BME280;4748;50.802;7.132;2023-04-20T02:05:43;101227.94;;;8.82;86.83
9419;BME280;4748;50.802;7.132;2023-04-20T02:08:09;101223.59;;;8.81;87.49
9419;BME280;4748;50.802;7.132;2023-04-20T02:10:35;101222.41;;;8.84;88.07
9419;BME280;4748;50.802;7.132;2023-04-20T02:13:00;101218.25;;;8.81;89.03
9419;BME280;4748;50.802;7.132;2023-04-20T02:15:25;101216.81;;;8.79;88.62
9419;BME280;4748;50.802;7.132;2023-04-20T02:17:51;101217.69;;;8.86;86.85
9419;BME280;4748;50.802;7.132;2023-04-20T02:20:17;101215.00;;;8.86;87.89
9419;BME280;4748;50.802;7.132;2023-04-20T02:22:45;101210.09;;;8.89;86.17
9419;BME280;4748;50.802;7.132;2023-04-20T02:25:11;101195.53;;;8.92;87.37
9419;BME280;4748;50.802;7.132;2023-04-20T02:27:37;101194.53;;;8.93;88.50
9419;BME280;4748;50.802;7.132;2023-04-20T02:30:02;101190.63;;;8.95;88.06
9419;BME280;4748;50.802;7.132;2023-04-20T02:32:28;101185.31;;;8.95;85.88
9419;BME280;4748;50.802;7.132;2023-04-20T02:34:53;101182.63;;;8.95;87.23
9419;BME280;4748;50.802;7.132;2023-04-20T02:37:19;101182.22;;;8.98;86.88
9419;BME280;4748;50.802;7.132;2023-04-20T02:39:44;101175.22;;;8.97;86.40
9419;BME280;4748;50.802;7.132;2023-04-20T02:42:10;101172.75;;;8.96;86.95
9419;BME280;4748;50.802;7.132;2023-04-20T02:44:35;101166.97;;;8.92;87.46
9419;BME280;4748;50.802;7.132;2023-04-20T02:47:01;101168.22;;;8.90;88.79
9419;BME280;4748;50.802;7.132;2023-04-20T02:49:26;101163.75;;;8.97;87.01
9419;BME280;4748;50.802;7.132;2023-04-20T02:51:51;101164.34;;;8.99;88.23
9419;BME280;4748;50.802;7.132;2023-04-20T02:54:16;101157.16;;;8.99;87.90
9419;BME280;4748;50.802;7.132;2023-04-20T02:56:42;101160.03;;;8.98;89.82
9419;BME280;4748;50.802;7.132;2023-04-20T02:59:07;101157.16;;;8.99;88.39
9419;BME280;4748;50.802;7.132;2023-04-20T03:01:32;101151.59;;;8.94;89.65
9419;BME280;4748;50.802;7.132;2023-04-20T03:03:58;101157.56;;;8.96;89.42
9419;BME280;4748;50.802;7.132;2023-04-20T03:06:23;101148.53;;;8.97;88.91
9419;BME280;4748;50.802;7.132;2023-04-20T03:08:48;101150.59;;;9.02;87.81
9419;BME280;4748;50.802;7.132;2023-04-20T03:11:14;101156.59;;;9.04;88.44
9419;BME280;4748;50.802;7.132;2023-04-20T03:13:40;101147.75;;;9.03;89.25
9419;BME280;4748;50.802;7.132;2023-04-20T03:16:05;101148.13;;;9.00;88.48
9419;BME280;4748;50.802;7.132;2023-04-20T03:18:31;101152.88;;;8.98;89.21
9419;BME280;4748;50.802;7.132;2023-04-20T03:20:56;101149.78;;;9.01;91.88
9419;BME280;4748;50.802;7.132;2023-04-20T03:23:22;101155.13;;;9.01;89.95
9419;BME280;4748;50.802;7.132;2023-04-20T03:25:47;101155.94;;;9.02;89.37
9419;BME280;4748;50.802;7.132;2023-04-20T03:28:14;101148.13;;;9.00;90.07
9419;BME280;4748;50.802;7.132;2023-04-20T03:30:39;101144.47;;;9.01;91.47
9419;BME280;4748;50.802;7.132;2023-04-20T03:33:05;101146.09;;;9.02;91.47
9419;BME280;4748;50.802;7.132;2023-04-20T03:35:30;101141.13;;;8.93;90.59
9419;BME280;4748;50.802;7.132;2023-04-20T03:37:56;101144.38;;;8.88;91.85
9419;BME280;4748;50.802;7.132;2023-04-20T03:40:21;101143.19;;;8.97;91.25
9419;BME280;4748;50.802;7.132;2023-04-20T03:42:46;101137.03;;;8.97;90.84
9419;BME280;4748;50.802;7.132;2023-04-20T03:45:12;101134.78;;;8.94;92.93
9419;BME280;4748;50.802;7.132;2023-04-20T03:47:37;101140.72;;;8.96;92.57
9419;BME280;4748;50.802;7.132;2023-04-20T03:50:03;101135.78;;;8.93;91.56
9419;BME280;4748;50.802;7.132;2023-04-20T03:52:29;101139.47;;;8.92;91.06
9419;BME280;4748;50.802;7.132;2023-04-20T03:54:55;101129.84;;;8.97;91.09
9419;BME280;4748;50.802;7.132;2023-04-20T03:57:20;101133.78;;;9.01;92.75
9419;BME280;4748;50.802;7.132;2023-04-20T03:59:45;101130.47;;;8.99;95.20
9419;BME280;4748;50.802;7.132;2023-04-20T04:02:11;101130.25;;;9.01;95.19
9419;BME280;4748;50.802;7.132;2023-04-20T04:04:38;101133.72;;;8.95;94.25
9419;BME280;4748;50.802;7.132;2023-04-20T04:07:04;101137.03;;;8.97;95.83
9419;BME280;4748;50.802;7.132;2023-04-20T04:09:30;101143.66;;;8.73;100.00
9419;BME280;4748;50.802;7.132;2023-04-20T04:11:55;101133.34;;;8.64;100.00
9419;BME280;4748;50.802;7.132;2023-04-20T04:14:21;101134.56;;;8.62;100.00
9419;BME280;4748;50.802;7.132;2023-04-20T04:16:46;101132.19;;;8.46;100.00
9419;BME280;4748;50.802;7.132;2023-04-20T04:19:12;101139.63;;;8.50;100.00
9419;BME280;4748;50.802;7.132;2023-04-20T04:21:37;101137.16;;;8.49;100.00
9419;BME280;4748;50.802;7.132;2023-04-20T04:24:03;101127.69;;;8.46;100.00
9419;BME280;4748;50.802;7.132;2023-04-20T04:26:28;101128.94;;;8.50;100.00
9419;BME280;4748;50.802;7.132;2023-04-20T04:28:56;101136.47;;;8.40;100.00
9419;BME280;4748;50.802;7.132;2023-04-20T04:31:22;101130.06;;;8.35;100.00
9419;BME280;4748;50.802;7.132;2023-04-20T04:33:47;101128.00;;;8.37;100.00
9419;BME280;4748;50.802;7.132;2023-04-20T04:36:13;101135.78;;;8.32;100.00
9419;BME280;4748;50.802;7.132;2023-04-20T04:38:40;101119.78;;;8.32;100.00
9419;BME280;4748;50.802;7.132;2023-04-20T04:41:08;101122.56;;;8.24;100.00
9419;BME280;4748;50.802;7.132;2023-04-20T04:43:34;101116.75;;;8.14;100.00
9419;BME280;4748;50.802;7.132;2023-04-20T04:46:05;101117.22;;;8.17;100.00
9419;BME280;4748;50.802;7.132;2023-04-20T04:48:31;101118.41;;;8.15;100.00
9419;BME280;4748;50.802;7.132;2023-04-20T04:50:56;101114.34;;;8.19;100.00
9419;BME280;4748;50.802;7.132;2023-04-20T04:53:21;101117.41;;;8.16;100.00
9419;BME280;4748;50.802;7.132;2023-04-20T04:55:46;101115.56;;;8.16;100.00
9419;BME280;4748;50.802;7.132;2023-04-20T04:58:12;101117.25;;;8.24;100.00
9419;BME280;4748;50.802;7.132;2023-04-20T05:00:37;101117.91;;;8.26;100.00
9419;BME280;4748;50.802;7.132;2023-04-20T05:03:04;101115.84;;;8.28;100.00
9419;BME280;4748;50.802;7.132;2023-04-20T05:05:30;101119.53;;;8.27;100.00
9419;BME280;4748;50.802;7.132;2023-04-20T05:07:55;101117.13;;;8.32;100.00
9419;BME280;4748;50.802;7.132;2023-04-20T05:10:20;101117.72;;;8.34;100.00
9419;BME280;4748;50.802;7.132;2023-04-20T05:12:46;101114.28;;;8.40;100.00
9419;BME280;4748;50.802;7.132;2023-04-20T05:15:12;101112.00;;;8.37;100.00
9419;BME280;4748;50.802;7.132;2023-04-20T05:17:38;101109.09;;;8.32;100.00
9419;BME280;4748;50.802;7.132;2023-04-20T05:20:04;101114.66;;;8.37;100.00
9419;BME280;4748;50.802;7.132;2023-04-20T05:22:30;101109.19;;;8.45;100.00
9419;BME280;4748;50.802;7.132;2023-04-20T05:24:57;101105.13;;;8.49;100.00
9419;BME280;4748;50.802;7.132;2023-04-20T05:27:22;101101.69;;;8.55;100.00
9419;BME280;4748;50.802;7.132;2023-04-20T05:29:47;101094.94;;;8.59;100.00
9419;BME280;4748;50.802;7.132;2023-04-20T05:32:13;101101.13;;;8.65;100.00
9419;BME280;4748;50.802;7.132;2023-04-20T05:34:38;101099.94;;;8.74;100.00
9419;BME280;4748;50.802;7.132;2023-04-20T05:37:04;101098.06;;;8.68;100.00
9419;BME280;4748;50.802;7.132;2023-04-20T05:39:30;101097.22;;;8.68;100.00
9419;BME280;4748;50.802;7.132;2023-04-20T05:41:55;101112.69;;;8.72;100.00
9419;BME280;4748;50.802;7.132;2023-04-20T05:44:20;101104.22;;;8.69;100.00
9419;BME280;4748;50.802;7.132;2023-04-20T05:46:46;101097.63;;;8.65;100.00
9419;BME280;4748;50.802;7.132;2023-04-20T05:49:11;101098.69;;;8.70;100.00
9419;BME280;4748;50.802;7.132;2023-04-20T05:51:36;101106.94;;;8.75;100.00
9419;BME280;4748;50.802;7.132;2023-04-20T05:54:02;101105.69;;;8.71;100.00
9419;BME280;4748;50.802;7.132;2023-04-20T05:56:28;101105.09;;;8.76;100.00
9419;BME280;4748;50.802;7.132;2023-04-20T05:58:54;101111.03;;;8.78;100.00
9419;BME280;4748;50.802;7.132;2023-04-20T06:01:20;101110.56;;;8.68;100.00
9419;BME280;4748;50.802;7.132;2023-04-20T06:03:45;101107.91;;;8.68;100.00
9419;BME280;4748;50.802;7.132;2023-04-20T06:06:12;101110.78;;;8.66;100.00
9419;BME280;4748;50.802;7.132;2023-04-20T06:08:38;101109.97;;;8.66;100.00
9419;BME280;4748;50.802;7.132;2023-04-20T06:11:03;101114.28;;;8.67;100.00
9419;BME280;4748;50.802;7.132;2023-04-20T06:13:28;101107.88;;;8.62;100.00
9419;BME280;4748;50.802;7.132;2023-04-20T06:15:54;101110.94;;;8.59;100.00
9419;BME280;4748;50.802;7.132;2023-04-20T06:18:19;101108.41;;;8.51;100.00
9419;BME280;4748;50.802;7.132;2023-04-20T06:20:45;101101.81;;;8.47;100.00
9419;BME280;4748;50.802;7.132;2023-04-20T06:23:11;101102.06;;;8.52;100.00
9419;BME280;4748;50.802;7.132;2023-04-20T06:25:36;101104.00;;;8.64;100.00
9419;BME280;4748;50.802;7.132;2023-04-20T06:28:03;101106.75;;;8.50;100.00
9419;BME280;4748;50.802;7.132;2023-04-20T06:30:28;101105.75;;;8.51;100.00
9419;BME280;4748;50.802;7.132;2023-04-20T06:32:54;101102.69;;;8.54;100.00
9419;BME280;4748;50.802;7.132;2023-04-20T06:35:21;101101.41;;;8.43;100.00
9419;BME280;4748;50.802;7.132;2023-04-20T06:37:48;101105.91;;;8.43;100.00
9419;BME280;4748;50.802;7.132;2023-04-20T06:40:13;101098.47;;;8.38;100.00
9419;BME280;4748;50.802;7.132;2023-04-20T06:42:39;101093.50;;;8.29;100.00
9419;BME280;4748;50.802;7.132;2023-04-20T06:45:05;101095.97;;;8.30;100.00
9419;BME280;4748;50.802;7.132;2023-04-20T06:47:31;101100.09;;;8.33;100.00
9419;BME280;4748;50.802;7.132;2023-04-20T06:49:58;101088.16;;;8.29;100.00
9419;BME280;4748;50.802;7.132;2023-04-20T06:52:24;101093.09;;;8.32;100.00
9419;BME280;4748;50.802;7.132;2023-04-20T06:54:49;101093.44;;;8.22;100.00
9419;BME280;4748;50.802;7.132;2023-04-20T06:57:14;101088.06;;;8.16;100.00
9419;BME280;4748;50.802;7.132;2023-04-20T06:59:40;101088.88;;;8.16;100.00
9419;BME280;4748;50.802;7.132;2023-04-20T07:02:07;101083.13;;;8.13;100.00
9419;BME280;4748;50.802;7.132;2023-04-20T07:04:32;101087.88;;;7.97;100.00
9419;BME280;4748;50.802;7.132;2023-04-20T07:06:57;101082.75;;;8.16;100.00
9419;BME280;4748;50.802;7.132;2023-04-20T07:09:23;101081.47;;;8.39;100.00
9419;BME280;4748;50.802;7.132;2023-04-20T07:11:49;101092.38;;;8.44;100.00
9419;BME280;4748;50.802;7.132;2023-04-20T07:14:14;101088.19;;;8.35;100.00
9419;BME280;4748;50.802;7.132;2023-04-20T07:16:39;101079.84;;;8.45;100.00
9419;BME280;4748;50.802;7.132;2023-04-20T07:19:05;101092.88;;;8.61;100.00
9419;BME280;4748;50.802;7.132;2023-04-20T07:21:30;101082.66;;;8.64;100.00
9419;BME280;4748;50.802;7.132;2023-04-20T07:23:56;101079.41;;;8.68;100.00
9419;BME280;4748;50.802;7.132;2023-04-20T07:26:23;101079.28;;;8.89;100.00
9419;BME280;4748;50.802;7.132;2023-04-20T07:28:50;101083.38;;;8.85;100.00
9419;BME280;4748;50.802;7.132;2023-04-20T07:31:15;101075.44;;;8.98;100.00
9419;BME280;4748;50.802;7.132;2023-04-20T07:33:41;101078.09;;;8.98;100.00
9419;BME280;4748;50.802;7.132;2023-04-20T07:36:07;101069.06;;;8.99;100.00
9419;BME280;4748;50.802;7.132;2023-04-20T07:38:32;101074.19;;;9.01;100.00
9419;BME280;4748;50.802;7.132;2023-04-20T07:40:57;101080.78;;;8.98;100.00
9419;BME280;4748;50.802;7.132;2023-04-20T07:43:23;101079.53;;;9.01;100.00
9419;BME280;4748;50.802;7.132;2023-04-20T07:45:48;101087.47;;;8.88;100.00
9419;BME280;4748;50.802;7.132;2023-04-20T07:48:13;101080.34;;;8.95;100.00
9419;BME280;4748;50.802;7.132;2023-04-20T07:50:39;101076.38;;;8.84;100.00
9419;BME280;4748;50.802;7.132;2023-04-20T07:53:04;101065.38;;;9.00;100.00
9419;BME280;4748;50.802;7.132;2023-04-20T07:55:29;101068.03;;;8.94;100.00
9419;BME280;4748;50.802;7.132;2023-04-20T07:57:56;101075.84;;;8.95;100.00
9419;BME280;4748;50.802;7.132;2023-04-20T08:00:21;101071.31;;;9.02;100.00
9419;BME280;4748;50.802;7.132;2023-04-20T08:02:47;101076.44;;;8.97;100.00
9419;BME280;4748;50.802;7.132;2023-04-20T08:05:12;101070.53;;;9.08;100.00
9419;BME280;4748;50.802;7.132;2023-04-20T08:07:38;101066.16;;;8.94;100.00
9419;BME280;4748;50.802;7.132;2023-04-20T08:10:05;101065.22;;;9.14;100.00
9419;BME280;4748;50.802;7.132;2023-04-20T08:12:31;101061.16;;;9.25;100.00
9419;BME280;4748;50.802;7.132;2023-04-20T08:14:56;101067.34;;;9.38;100.00
9419;BME280;4748;50.802;7.132;2023-04-20T08:17:29;101067.91;;;9.27;100.00
9419;BME280;4748;50.802;7.132;2023-04-20T08:19:54;101062.47;;;9.55;100.00
9419;BME280;4748;50.802;7.132;2023-04-20T08:22:20;101061.19;;;9.57;100.00
9419;BME280;4748;50.802;7.132;2023-04-20T08:24:45;101058.16;;;9.66;100.00
9419;BME280;4748;50.802;7.132;2023-04-20T08:27:11;101069.03;;;9.65;100.00
9419;BME280;4748;50.802;7.132;2023-04-20T08:29:38;101064.50;;;9.65;100.00
9419;BME280;4748;50.802;7.132;2023-04-20T08:32:03;101065.16;;;9.87;100.00
9419;BME280;4748;50.802;7.132;2023-04-20T08:34:29;101064.75;;;9.83;100.00
9419;BME280;4748;50.802;7.132;2023-04-20T08:36:54;101056.31;;;9.73;100.00
9419;BME280;4748;50.802;7.132;2023-04-20T08:39:20;101056.09;;;9.88;100.00
9419;BME280;4748;50.802;7.132;2023-04-20T08:41:48;101065.97;;;9.68;100.00
9419;BME280;4748;50.802;7.132;2023-04-20T08:44:18;101058.31;;;9.59;100.00
9419;BME280;4748;50.802;7.132;2023-04-20T08:46:46;101057.06;;;9.35;100.00
9419;BME280;4748;50.802;7.132;2023-04-20T08:49:16;101054.00;;;9.45;100.00
9419;BME280;4748;50.802;7.132;2023-04-20T08:51:43;101063.41;;;9.28;100.00
9419;BME280;4748;50.802;7.132;2023-04-20T08:54:09;101052.50;;;9.23;100.00
9419;BME280;4748;50.802;7.132;2023-04-20T08:56:43;101058.84;;;9.22;100.00
9419;BME280;4748;50.802;7.132;2023-04-20T08:59:10;101053.50;;;9.15;100.00
9419;BME280;4748;50.802;7.132;2023-04-20T09:01:37;101055.56;;;9.20;100.00
9419;BME280;4748;50.802;7.132;2023-04-20T09:04:18;101050.06;;;9.28;100.00
9419;BME280;4748;50.802;7.132;2023-04-20T09:06:54;101052.94;;;9.33;100.00
9419;BME280;4748;50.802;7.132;2023-04-20T09:09:21;101056.25;;;9.35;100.00
9419;BME280;4748;50.802;7.132;2023-04-20T09:11:58;101047.22;;;9.42;100.00
9419;BME280;4748;50.802;7.132;2023-04-20T09:14:26;101048.03;;;9.56;100.00
9419;BME280;4748;50.802;7.132;2023-04-20T09:16:53;101050.53;;;9.70;100.00
9419;BME280;4748;50.802;7.132;2023-04-20T09:19:25;101032.66;;;9.83;100.00
9419;BME280;4748;50.802;7.132;2023-04-20T09:21:53;101038.44;;;10.06;100.00
9419;BME280;4748;50.802;7.132;2023-04-20T09:24:24;101037.97;;;10.35;100.00
9419;BME280;4748;50.802;7.132;2023-04-20T09:26:54;101029.03;;;10.73;100.00
9419;BME280;4748;50.802;7.132;2023-04-20T09:29:21;101030.34;;;10.45;100.00
9419;BME280;4748;50.802;7.132;2023-04-20T09:31:48;101046.78;;;10.61;100.00
9419;BME280;4748;50.802;7.132;2023-04-20T09:34:14;101031.31;;;10.69;100.00
9419;BME280;4748;50.802;7.132;2023-04-20T09:36:41;101027.78;;;10.75;100.00
9419;BME280;4748;50.802;7.132;2023-04-20T09:41:38;101042.19;;;10.74;100.00
9419;BME280;4748;50.802;7.132;2023-04-20T09:44:04;101040.91;;;10.90;100.00
9419;BME280;4748;50.802;7.132;2023-04-20T09:46:32;101035.72;;;11.01;100.00
9419;BME280;4748;50.802;7.132;2023-04-20T09:48:59;101038.81;;;10.98;100.00
9419;BME280;4748;50.802;7.132;2023-04-20T09:51:26;101043.75;;;10.32;100.00
9419;BME280;4748;50.802;7.132;2023-04-20T09:54:00;101049.75;;;10.08;100.00
9419;BME280;4748;50.802;7.132;2023-04-20T09:56:26;101043.56;;;10.01;100.00
9419;BME280;4748;50.802;7.132;2023-04-20T09:58:55;101043.97;;;10.37;100.00
9419;BME280;4748;50.802;7.132;2023-04-20T10:01:21;101035.94;;;10.37;100.00
9419;BME280;4748;50.802;7.132;2023-04-20T10:03:47;101045.53;;;10.64;100.00
9419;BME280;4748;50.802;7.132;2023-04-20T10:08:43;101036.84;;;10.74;100.00
9419;BME280;4748;50.802;7.132;2023-04-20T10:11:08;101034.63;;;11.15;100.00
9419;BME280;4748;50.802;7.132;2023-04-20T10:13:36;101033.41;;;11.11;100.00
9419;BME280;4748;50.802;7.132;2023-04-20T10:16:02;101026.22;;;11.05;100.00
9419;BME280;4748;50.802;7.132;2023-04-20T10:18:27;101023.06;;;11.15;100.00
9419;BME280;4748;50.802;7.132;2023-04-20T10:21:06;101028.06;;;11.72;100.00
9419;BME280;4748;50.802;7.132;2023-04-20T10:23:33;101017.25;;;11.85;100.00
9419;BME280;4748;50.802;7.132;2023-04-20T10:25:59;101020.44;;;12.00;100.00
9419;BME280;4748;50.802;7.132;2023-04-20T10:28:39;101021.69;;;11.73;100.00
9419;BME280;4748;50.802;7.132;2023-04-20T10:31:06;101021.63;;;12.04;100.00
9419;BME280;4748;50.802;7.132;2023-04-20T10:33:32;101021.00;;;11.54;100.00
9419;BME280;4748;50.802;7.132;2023-04-20T10:35:57;101033.50;;;11.66;100.00
9419;BME280;4748;50.802;7.132;2023-04-20T10:38:31;101033.28;;;11.68;100.00
9419;BME280;4748;50.802;7.132;2023-04-20T10:41:10;101014.84;;;12.02;100.00
9419;BME280;4748;50.802;7.132;2023-04-20T10:43:36;101019.22;;;11.96;100.00
9419;BME280;4748;50.802;7.132;2023-04-20T10:46:18;101018.34;;;11.78;100.00
9419;BME280;4748;50.802;7.132;2023-04-20T10:51:16;101013.84;;;11.96;100.00
9419;BME280;4748;50.802;7.132;2023-04-20T10:53:41;101006.44;;;11.98;100.00
9419;BME280;4748;50.802;7.132;2023-04-20T10:56:07;101018.88;;;11.86;100.00
9419;BME280;4748;50.802;7.132;2023-04-20T10:58:32;101013.25;;;11.70;100.00
9419;BME280;4748;50.802;7.132;2023-04-20T11:01:02;101009.16;;;11.92;100.00
9419;BME280;4748;50.802;7.132;2023-04-20T11:03:29;101020.09;;;11.90;100.00
9419;BME280;4748;50.802;7.132;2023-04-20T11:05:56;101013.06;;;12.14;100.00
9419;BME280;4748;50.802;7.132;2023-04-20T11:08:35;101004.50;;;12.23;100.00
9419;BME280;4748;50.802;7.132;2023-04-20T11:11:01;100999.41;;;11.97;100.00
9419;BME280;4748;50.802;7.132;2023-04-20T11:13:26;101011.88;;;12.10;100.00
9419;BME280;4748;50.802;7.132;2023-04-20T11:15:53;101009.63;;;12.31;100.00
9419;BME280;4748;50.802;7.132;2023-04-20T11:18:18;101010.66;;;12.30;100.00
9419;BME280;4748;50.802;7.132;2023-04-20T11:20:51;101012.75;;;12.46;100.00
9419;BME280;4748;50.802;7.132;2023-04-20T11:23:21;101010.97;;;12.58;100.00
9419;BME280;4748;50.802;7.132;2023-04-20T11:25:54;101002.97;;;12.51;100.00
9419;BME280;4748;50.802;7.132;2023-04-20T11:28:20;100996.78;;;12.51;100.00
9419;BME280;4748;50.802;7.132;2023-04-20T11:30:47;101016.63;;;12.50;100.00
9419;BME280;4748;50.802;7.132;2023-04-20T11:33:14;101000.81;;;12.24;100.00
9419;BME280;4748;50.802;7.132;2023-04-20T11:35:41;101004.56;;;12.41;100.00
9419;BME280;4748;50.802;7.132;2023-04-20T11:38:07;100997.16;;;12.72;100.00
9419;BME280;4748;50.802;7.132;2023-04-20T11:40:33;101008.13;;;12.53;100.00
9419;BME280;4748;50.802;7.132;2023-04-20T11:43:01;100989.03;;;12.61;100.00
9419;BME280;4748;50.802;7.132;2023-04-20T11:45:31;100993.28;;;12.68;100.00
9419;BME280;4748;50.802;7.132;2023-04-20T11:48:00;100992.16;;;12.40;100.00
9419;BME280;4748;50.802;7.132;2023-04-20T11:50:25;100998.94;;;12.42;100.00
9419;BME280;4748;50.802;7.132;2023-04-20T11:52:51;100991.78;;;12.54;100.00
9419;BME280;4748;50.802;7.132;2023-04-20T11:55:16;100994.69;;;12.71;100.00
9419;BME280;4748;50.802;7.132;2023-04-20T11:57:41;100991.72;;;12.96;100.00
9419;BME280;4748;50.802;7.132;2023-04-20T12:00:07;100981.50;;;13.16;100.00
9419;BME280;4748;50.802;7.132;2023-04-20T12:02:33;100976.75;;;12.82;100.00
9419;BME280;4748;50.802;7.132;2023-04-20T12:04:58;100983.50;;;13.21;100.00
9419;BME280;4748;50.802;7.132;2023-04-20T12:07:26;100985.69;;;13.12;100.00
9419;BME280;4748;50.802;7.132;2023-04-20T12:09:52;100979.44;;;13.70;100.00
9419;BME280;4748;50.802;7.132;2023-04-20T12:12:17;100982.34;;;13.69;100.00
9419;BME280;4748;50.802;7.132;2023-04-20T12:14:43;100984.19;;;13.68;98.99
9419;BME280;4748;50.802;7.132;2023-04-20T12:17:08;100983.78;;;13.82;100.00
9419;BME280;4748;50.802;7.132;2023-04-20T12:19:33;100981.44;;;13.97;99.07
9419;BME280;4748;50.802;7.132;2023-04-20T12:21:59;100982.00;;;13.99;99.12
9419;BME280;4748;50.802;7.132;2023-04-20T12:24:24;100974.91;;;14.27;98.03
9419;BME280;4748;50.802;7.132;2023-04-20T12:26:50;100976.78;;;14.16;93.64
9419;BME280;4748;50.802;7.132;2023-04-20T12:29:15;100976.66;;;14.45;95.83
9419;BME280;4748;50.802;7.132;2023-04-20T12:31:41;100976.31;;;14.30;95.64
9419;BME280;4748;50.802;7.132;2023-04-20T12:34:06;100969.16;;;14.47;95.20
9419;BME280;4748;50.802;7.132;2023-04-20T12:36:31;100972.34;;;14.32;95.15
9419;BME280;4748;50.802;7.132;2023-04-20T12:38:59;100962.72;;;14.02;95.46
9419;BME280;4748;50.802;7.132;2023-04-20T12:41:24;100956.75;;;14.00;92.83
9419;BME280;4748;50.802;7.132;2023-04-20T12:43:52;100957.78;;;13.76;90.25
9419;BME280;4748;50.802;7.132;2023-04-20T12:46:17;100964.44;;;13.63;91.13
9419;BME280;4748;50.802;7.132;2023-04-20T12:48:43;100959.56;;;13.71;90.93
9419;BME280;4748;50.802;7.132;2023-04-20T12:51:12;100946.75;;;13.67;88.85
9419;BME280;4748;50.802;7.132;2023-04-20T12:53:38;100948.88;;;13.65;91.84
9419;BME280;4748;50.802;7.132;2023-04-20T12:56:04;100954.03;;;13.77;91.65
9419;BME280;4748;50.802;7.132;2023-04-20T12:58:29;100954.28;;;13.87;91.31
9419;BME280;4748;50.802;7.132;2023-04-20T13:00:54;100938.03;;;13.82;92.83
9419;BME280;4748;50.802;7.132;2023-04-20T13:03:20;100933.91;;;14.37;89.46
9419;BME280;4748;50.802;7.132;2023-04-20T13:05:45;100944.38;;;14.11;85.12
9419;BME280;4748;50.802;7.132;2023-04-20T13:08:11;100937.78;;;13.73;88.04
9419;BME280;4748;50.802;7.132;2023-04-20T13:10:38;100925.06;;;14.14;87.30
9419;BME280;4748;50.802;7.132;2023-04-20T13:13:04;100930.28;;;13.97;88.04
9419;BME280;4748;50.802;7.132;2023-04-20T13:15:30;100915.19;;;14.19;89.35